Time;durP1;ratioP1;P1;durP2;ratioP2;P2;SDS_P1;SDS_P2;PMS_P1;PMS_P2;Temp;Humidity;BMP_temperature;BMP_pressure;BME280_temperature;BME280_humidity;BME280_pressure;Samples;Min_cycle;Max_cycle;Signal;HPM_P1;HPM_P2
2022/11/29 00:01:33;;;;;;;5.10;4.10;;;;;;;18.66;49.64;101367.13;5024833;28;20057;-60
2022/11/29 00:03:59;;;;;;;5.53;4.32;;;;;;;18.68;49.91;101370.50;5024492;28;20057;-60
2022/11/29 00:06:27;;;;;;;5.75;4.72;;;;;;;18.66;49.60;101374.34;5024327;28;20036;-60
2022/11/29 00:08:54;;;;;;;4.90;3.78;;;;;;;18.64;49.64;101377.19;5024015;28;20030;-61
2022/11/29 00:14:08;;;;;;;5.22;4.10;;;;;;;18.64;49.52;101382.56;5023644;28;20064;-60
2022/11/29 00:16:34;;;;;;;6.47;4.63;;;;;;;18.63;49.90;101380.06;5023897;28;20029;-60
2022/11/29 00:18:59;;;;;;;5.97;4.40;;;;;;;18.62;49.93;101367.59;5024494;28;20037;-60
2022/11/29 00:21:25;;;;;;;6.22;4.32;;;;;;;18.61;49.69;101372.13;5024171;28;20034;-60
2022/11/29 00:23:50;;;;;;;5.80;4.78;;;;;;;18.60;49.85;101367.72;5023702;28;20049;-60
2022/11/29 00:26:16;;;;;;;5.82;4.10;;;;;;;18.59;49.66;101371.44;5002959;28;20479;-60
2022/11/29 00:28:41;;;;;;;5.40;4.60;;;;;;;18.58;49.98;101367.06;5022797;28;20045;-60
2022/11/29 00:31:21;;;;;;;5.38;4.10;;;;;;;18.51;49.80;101357.06;5024189;28;20049;-61
2022/11/29 00:33:47;;;;;;;4.97;3.90;;;;;;;18.57;50.00;101373.44;5024057;28;20030;-60
2022/11/29 00:36:12;;;;;;;4.93;4.10;;;;;;;18.56;49.74;101376.28;5024110;28;20044;-60
2022/11/29 00:38:38;;;;;;;5.35;4.28;;;;;;;18.56;49.87;101379.81;5023622;28;20057;-60
2022/11/29 00:41:03;;;;;;;4.53;3.78;;;;;;;18.51;49.99;101371.34;5024283;28;20509;-60
2022/11/29 00:43:29;;;;;;;4.32;3.75;;;;;;;18.54;50.15;101376.44;5024200;28;20028;-61
2022/11/29 00:45:54;;;;;;;5.38;4.47;;;;;;;18.54;49.71;101381.81;5023918;28;20026;-60
2022/11/29 00:48:19;;;;;;;4.93;4.40;;;;;;;18.53;49.94;101377.44;5024124;28;20034;-61
2022/11/29 00:50:44;;;;;;;5.78;4.10;;;;;;;18.52;49.92;101386.53;5024084;28;20053;-60
2022/11/29 00:53:10;;;;;;;5.30;4.20;;;;;;;18.52;49.75;101391.03;5023676;28;20383;-57
2022/11/29 00:55:35;;;;;;;5.57;3.67;;;;;;;18.43;49.85;101384.75;5024221;28;20026;-60
2022/11/29 00:58:00;;;;;;;5.60;4.18;;;;;;;18.40;50.04;101380.53;5005981;28;20037;-52
2022/11/29 01:00:26;;;;;;;7.00;4.80;;;;;;;18.47;49.71;101392.34;5024242;28;20030;-53
2022/11/29 01:02:51;;;;;;;4.38;3.65;;;;;;;18.49;49.99;101397.59;5023720;28;20033;-49
2022/11/29 01:05:16;;;;;;;5.68;3.92;;;;;;;18.47;50.04;101397.75;5023972;28;20533;-55
2022/11/29 01:07:42;;;;;;;4.88;3.80;;;;;;;18.47;50.06;101403.13;5023689;28;20022;-51
2022/11/29 01:10:08;;;;;;;5.25;4.18;;;;;;;18.46;50.08;101400.59;5023153;28;20093;-54
2022/11/29 01:12:36;;;;;;;4.47;3.75;;;;;;;18.44;49.75;101398.06;5023789;28;20495;-60
2022/11/29 01:15:06;;;;;;;6.00;4.13;;;;;;;18.45;50.00;101401.59;5023716;28;20036;-60
2022/11/29 01:17:34;;;;;;;4.45;3.90;;;;;;;18.44;50.08;101400.75;5023363;28;20037;-60
2022/11/29 01:19:59;;;;;;;4.80;4.03;;;;;;;18.42;49.78;101400.06;5023722;28;20033;-59
2022/11/29 01:22:24;;;;;;;4.57;3.85;;;;;;;18.41;49.76;101398.38;5023386;28;20034;-60
2022/11/29 01:24:50;;;;;;;5.20;4.07;;;;;;;18.42;49.99;101401.91;5025756;28;20058;-60
2022/11/29 01:27:15;;;;;;;6.45;4.40;;;;;;;18.41;49.83;101413.69;5027015;28;20080;-60
2022/11/29 01:29:40;;;;;;;6.47;4.18;;;;;;;18.40;49.86;101422.75;5027286;28;20041;-60
2022/11/29 01:32:05;;;;;;;4.75;3.92;;;;;;;18.39;50.14;101424.63;5027091;28;20044;-60
2022/11/29 01:34:31;;;;;;;4.90;3.80;;;;;;;18.40;49.94;101417.38;5027187;28;20030;-60
2022/11/29 01:36:56;;;;;;;5.18;3.70;;;;;;;18.38;49.66;101424.75;5026808;28;20025;-60
2022/11/29 01:39:21;;;;;;;4.72;4.00;;;;;;;18.32;50.04;101412.75;5026652;28;20098;-60
2022/11/29 01:41:46;;;;;;;5.28;3.80;;;;;;;18.37;49.85;101417.69;5027314;28;20041;-60
2022/11/29 01:44:12;;;;;;;5.80;4.00;;;;;;;18.37;49.48;101420.38;5026963;28;20054;-60
2022/11/29 01:46:39;;;;;;;5.32;4.10;;;;;;;18.35;50.08;101415.16;5018487;28;20030;-60
2022/11/29 01:49:15;;;;;;;5.22;4.10;;;;;;;18.35;49.82;101425.03;5026993;28;20036;-60
2022/11/29 01:51:43;;;;;;;6.05;4.30;;;;;;;18.26;49.87;101415.19;5001537;28;20037;-60
2022/11/29 01:54:09;;;;;;;4.82;3.85;;;;;;;18.22;50.08;101417.34;5008628;28;20029;-60
2022/11/29 01:56:36;;;;;;;4.43;3.83;;;;;;;18.33;50.21;101432.44;5009339;28;20033;-60
2022/11/29 01:59:05;;;;;;;4.80;3.75;;;;;;;18.24;49.88;101418.03;5026767;28;20499;-60
2022/11/29 02:01:31;;;;;;;5.05;3.90;;;;;;;18.25;49.89;101419.72;5026516;28;20030;-60
2022/11/29 02:03:56;;;;;;;5.97;4.25;;;;;;;18.31;50.05;101427.22;5026602;28;20034;-60
2022/11/29 02:06:22;;;;;;;5.70;4.55;;;;;;;18.26;50.00;101425.97;5008924;28;20052;-60
2022/11/29 02:08:47;;;;;;;5.40;4.00;;;;;;;18.30;49.90;101435.44;5000369;28;20041;-60
2022/11/29 02:11:23;;;;;;;4.88;3.78;;;;;;;18.29;49.79;101431.88;5026762;28;20030;-61
2022/11/29 02:14:08;;;;;;;4.82;3.97;;;;;;;18.28;49.95;101437.44;5026286;28;20602;-59
2022/11/29 02:17:10;;;;;;;5.05;3.90;;;;;;;18.28;49.92;101435.59;5026023;28;20022;-60
2022/11/29 02:20:07;;;;;;;5.38;3.97;;;;;;;18.24;49.70;101428.81;5026527;28;20021;-60
2022/11/29 02:22:40;;;;;;;4.78;3.83;;;;;;;18.27;50.07;101436.59;5025977;28;20033;-60
2022/11/29 02:25:16;;;;;;;4.55;3.33;;;;;;;18.27;49.69;101438.44;5008441;28;20036;-60
2022/11/29 02:28:11;;;;;;;5.72;4.22;;;;;;;18.24;50.07;101434.19;5008229;28;20034;-60
2022/11/29 02:31:03;;;;;;;5.38;4.30;;;;;;;18.25;49.82;101441.25;5022188;28;20038;-60
2022/11/29 02:33:47;;;;;;;4.97;3.92;;;;;;;18.22;50.33;101450.50;5021804;28;20029;-60
2022/11/29 02:36:30;;;;;;;4.72;3.97;;;;;;;18.22;50.10;101453.19;4998166;28;20038;-60
2022/11/29 02:38:55;;;;;;;5.72;4.20;;;;;;;18.22;49.87;101452.31;5024404;28;20036;-60
2022/11/29 02:41:44;;;;;;;4.68;3.53;;;;;;;18.21;50.18;101454.16;5026179;28;20116;-60
2022/11/29 02:44:27;;;;;;;5.88;4.30;;;;;;;18.22;49.81;101452.31;5008288;28;20025;-57
2022/11/29 02:47:23;;;;;;;6.55;4.78;;;;;;;18.20;49.84;101449.78;5007806;28;20038;-60
2022/11/29 02:50:07;;;;;;;5.03;3.90;;;;;;;18.20;49.80;101455.19;5025799;28;20029;-60
2022/11/29 02:53:00;;;;;;;5.68;3.83;;;;;;;18.20;49.89;101457.03;5025765;28;20049;-60
2022/11/29 02:55:44;;;;;;;4.50;3.55;;;;;;;18.19;50.10;101463.41;5019486;28;20033;-60
2022/11/29 02:58:19;;;;;;;4.05;3.53;;;;;;;18.19;50.23;101463.41;5025487;28;20037;-60
2022/11/29 03:01:09;;;;;;;6.97;4.65;;;;;;;18.18;50.07;101459.00;5008021;28;20052;-60
2022/11/29 03:03:43;;;;;;;5.85;4.50;;;;;;;18.07;50.12;101445.78;5020597;28;20026;-60
2022/11/29 03:06:25;;;;;;;5.82;4.43;;;;;;;18.17;50.04;101465.38;5007496;28;20505;-60
2022/11/29 03:09:00;;;;;;;4.90;4.22;;;;;;;18.15;50.03;101468.25;5007278;28;20034;-60
2022/11/29 03:11:39;;;;;;;5.80;4.10;;;;;;;18.12;50.06;101463.16;5017031;28;20029;-60
2022/11/29 03:14:33;;;;;;;6.15;4.18;;;;;;;18.14;50.09;101469.25;5007667;28;20033;-60
2022/11/29 03:17:11;;;;;;;5.85;4.25;;;;;;;18.15;49.96;101473.63;5007481;28;20060;-60
2022/11/29 03:19:49;;;;;;;5.40;4.25;;;;;;;18.13;49.73;101475.59;5025294;28;20028;-59
2022/11/29 03:22:40;;;;;;;4.57;3.88;;;;;;;18.13;49.96;101478.28;5024926;28;20061;-60
2022/11/29 03:25:17;;;;;;;5.75;4.35;;;;;;;18.14;50.01;101481.88;5007093;28;20030;-60
2022/11/29 03:27:50;;;;;;;5.05;4.22;;;;;;;18.11;49.85;101482.16;5007632;28;20396;-60
2022/11/29 03:30:17;;;;;;;5.65;3.97;;;;;;;18.03;49.83;101472.13;5007249;28;20034;-60
2022/11/29 03:32:49;;;;;;;5.75;4.20;;;;;;;18.11;49.77;101493.75;5025004;28;20025;-60
2022/11/29 03:35:28;;;;;;;6.32;4.38;;;;;;;17.96;49.79;101469.16;5024693;28;20041;-60
2022/11/29 03:37:56;;;;;;;;;;;;;;;18.11;49.83;101496.44;5007724;28;20022;-61
2022/11/29 03:40:32;;;;;;;4.93;4.10;;;;;;;18.10;49.66;101497.44;5007040;28;19920;-60
2022/11/29 03:43:03;;;;;;;4.65;3.47;;;;;;;18.09;49.73;101502.97;5024750;28;20056;-60
2022/11/29 03:45:40;;;;;;;6.65;4.10;;;;;;;18.06;49.95;101487.97;5006860;28;20057;-60
2022/11/29 03:48:17;;;;;;;5.78;4.20;;;;;;;18.07;49.85;101499.59;5024667;28;20076;-60
2022/11/29 03:51:05;;;;;;;4.63;3.88;;;;;;;18.06;49.82;101500.59;5007369;28;20049;-60
2022/11/29 03:53:50;;;;;;;5.55;4.20;;;;;;;18.07;49.94;101504.97;5024152;28;20030;-60
2022/11/29 03:56:37;;;;;;;4.47;3.83;;;;;;;18.07;49.67;101511.19;5007097;28;20030;-60
2022/11/29 03:59:18;;;;;;;6.35;4.43;;;;;;;18.06;49.93;101508.66;5024649;28;20053;-60
2022/11/29 04:01:52;;;;;;;4.82;3.75;;;;;;;18.05;49.73;101512.34;4999663;28;20041;-60
2022/11/29 04:04:39;;;;;;;6.43;4.15;;;;;;;18.04;49.74;101516.03;5024294;28;20034;-59
2022/11/29 04:07:42;;;;;;;5.20;4.05;;;;;;;18.04;49.99;101519.56;5000201;28;20383;-60
2022/11/29 04:10:29;;;;;;;5.15;4.20;;;;;;;17.97;49.83;101507.72;5019617;28;20056;-60
2022/11/29 04:13:17;;;;;;;4.82;4.05;;;;;;;18.03;49.65;101517.03;5000222;28;20060;-60
2022/11/29 04:16:17;;;;;;;4.63;3.83;;;;;;;18.02;49.75;101520.72;5006674;28;20838;-60
2022/11/29 04:19:21;;;;;;;5.47;4.00;;;;;;;18.01;49.71;101513.63;5024200;28;20030;-60
2022/11/29 04:21:55;;;;;;;5.05;4.30;;;;;;;18.02;50.00;101523.41;4982494;28;20102;-60
2022/11/29 04:24:30;;;;;;;4.75;3.53;;;;;;;18.01;49.83;101519.00;4982376;28;20057;-60
2022/11/29 04:27:16;;;;;;;5.32;4.18;;;;;;;17.99;49.89;101513.78;4979630;28;20062;-60
2022/11/29 04:29:47;;;;;;;5.60;4.13;;;;;;;17.99;49.93;101520.00;4981721;28;20047;-60
2022/11/29 04:32:19;;;;;;;6.13;4.32;;;;;;;17.98;49.77;101518.31;4983162;28;20049;-60
2022/11/29 04:35:29;;;;;;;5.13;4.07;;;;;;;17.96;49.98;101519.44;4982717;28;20074;-60
2022/11/29 04:38:13;;;;;;;5.10;3.78;;;;;;;17.98;49.98;101528.22;4925290;29;20095;-60
2022/11/29 04:40:50;;;;;;;5.72;3.67;;;;;;;17.97;49.53;101527.38;4925059;29;20055;-60
2022/11/29 04:43:37;;;;;;;6.28;4.15;;;;;;;17.97;49.74;101529.25;4924271;29;20059;-59
2022/11/29 04:46:17;;;;;;;6.55;4.95;;;;;;;17.96;49.70;101524.81;4924446;29;20159;-60
2022/11/29 04:49:06;;;;;;;5.32;4.20;;;;;;;17.96;49.80;101532.91;4940868;29;20432;-60
2022/11/29 04:51:55;;;;;;;5.70;4.72;;;;;;;17.95;49.81;101533.91;4924834;29;20048;-59
2022/11/29 04:54:32;;;;;;;6.30;4.20;;;;;;;17.95;49.71;101542.81;4924659;29;20036;-60
2022/11/29 04:57:05;;;;;;;7.30;5.03;;;;;;;17.95;49.67;101550.03;4925078;29;20032;-61
2022/11/29 04:59:46;;;;;;;5.60;4.00;;;;;;;17.94;49.81;101551.88;4910853;29;20275;-60
2022/11/29 05:02:36;;;;;;;5.65;4.07;;;;;;;17.93;49.96;101549.34;4912068;29;20027;-59
2022/11/29 05:05:13;;;;;;;7.85;4.63;;;;;;;17.93;49.97;101554.75;4920909;29;20071;-59
2022/11/29 05:08:00;;;;;;;6.00;4.63;;;;;;;17.94;50.04;101551.03;4928362;29;20131;-59
2022/11/29 05:10:32;;;;;;;5.78;4.13;;;;;;;17.94;50.19;101551.03;4925725;29;20032;-61
2022/11/29 05:13:33;;;;;;;5.97;4.40;;;;;;;17.94;50.06;101565.34;4996650;28;20044;-59
2022/11/29 05:16:04;;;;;;;5.50;4.30;;;;;;;17.94;50.25;101564.50;5009098;28;20053;-60
2022/11/29 05:18:42;;;;;;;5.50;4.20;;;;;;;17.94;50.17;101572.56;5025662;28;20033;-59
2022/11/29 05:21:27;;;;;;;4.78;3.92;;;;;;;17.93;50.16;101570.88;5021456;28;20034;-60
2022/11/29 05:24:17;;;;;;;6.65;4.57;;;;;;;17.94;50.46;101578.78;5007154;28;20061;-60
2022/11/29 05:26:48;;;;;;;6.53;5.22;;;;;;;17.95;50.34;101568.88;5026207;28;20038;-60
2022/11/29 05:29:21;;;;;;;6.75;4.60;;;;;;;17.96;50.32;101573.25;5001057;28;20124;-60
2022/11/29 05:31:55;;;;;;;6.55;4.13;;;;;;;17.96;50.27;101576.78;5008347;28;20034;-60
2022/11/29 05:34:39;;;;;;;5.45;4.43;;;;;;;17.97;50.57;101580.34;5024655;28;20145;-60
2022/11/29 05:37:15;;;;;;;7.10;4.45;;;;;;;17.97;50.45;101586.59;5026859;28;20037;-61
2022/11/29 05:40:08;;;;;;;6.13;4.20;;;;;;;17.99;50.57;101589.97;4993254;28;20180;-59
2022/11/29 05:42:50;;;;;;;6.18;4.63;;;;;;;18.01;50.89;101588.97;5022766;28;20026;-60
2022/11/29 05:45:33;;;;;;;6.38;4.22;;;;;;;17.94;50.76;101576.09;5008489;28;20037;-56
2022/11/29 05:48:04;;;;;;;7.10;5.10;;;;;;;18.02;50.60;101594.22;5007117;28;20034;-59
2022/11/29 05:50:36;;;;;;;6.05;4.10;;;;;;;18.04;50.61;101599.44;5008541;28;20089;-60
2022/11/29 05:53:34;;;;;;;10.45;4.60;;;;;;;18.04;50.63;101596.75;5025502;28;20029;-59
2022/11/29 05:56:25;;;;;;;5.82;4.03;;;;;;;18.05;50.56;101595.75;5026062;28;20105;-61
2022/11/29 05:58:55;;;;;;;6.72;4.40;;;;;;;18.06;50.61;101601.00;5006083;28;20030;-60
2022/11/29 06:01:51;;;;;;;5.10;4.03;;;;;;;18.09;50.73;101605.22;5008576;28;20117;-60
2022/11/29 06:04:56;;;;;;;6.22;4.20;;;;;;;18.09;50.82;101603.38;5024804;28;20030;-61
2022/11/29 06:07:26;;;;;;;5.32;4.00;;;;;;;18.11;50.51;101614.00;5022387;28;20081;-61
2022/11/29 06:10:10;;;;;;;6.07;4.60;;;;;;;18.10;50.64;101606.94;5007254;28;20033;-60
2022/11/29 06:12:36;;;;;;;6.93;4.50;;;;;;;18.09;50.62;101598.00;5020210;28;20030;-60
2022/11/29 06:15:25;;;;;;;6.90;4.60;;;;;;;18.10;50.61;101610.47;5025980;28;20042;-61
2022/11/29 06:18:45;;;;;;;6.25;4.40;;;;;;;18.10;50.82;101615.88;5019007;28;20026;-60
2022/11/29 06:21:15;;;;;;;6.22;4.40;;;;;;;18.10;50.88;101621.25;4991374;28;20045;-58
2022/11/29 06:23:59;;;;;;;5.93;4.57;;;;;;;18.11;51.07;101620.25;4993556;28;20109;-59
2022/11/29 06:26:50;;;;;;;4.70;3.53;;;;;;;18.10;50.97;101612.31;4981854;28;20050;-59
2022/11/29 06:29:28;;;;;;;5.95;3.80;;;;;;;18.10;50.78;101623.94;4993981;28;20042;-59
2022/11/29 06:32:24;;;;;;;5.57;3.95;;;;;;;18.10;51.14;101626.63;4997640;28;20201;-58
2022/11/29 06:34:52;;;;;;;5.90;4.35;;;;;;;18.11;51.07;101636.38;4948359;28;20038;-59
2022/11/29 06:37:38;;;;;;;7.50;4.00;;;;;;;18.11;50.94;101636.38;4991485;28;20030;-60
2022/11/29 06:40:05;;;;;;;6.22;4.15;;;;;;;18.14;50.86;101640.66;4967317;28;20097;-60
2022/11/29 06:42:30;;;;;;;6.35;4.45;;;;;;;18.14;50.76;101649.56;4997007;28;20038;-60
2022/11/29 06:44:55;;;;;;;6.50;4.03;;;;;;;18.13;50.96;101645.16;4997016;28;20042;-60
2022/11/29 06:47:28;;;;;;;8.18;4.47;;;;;;;18.16;51.47;101649.41;4996862;28;20073;-60
2022/11/29 06:49:55;;;;;;;4.93;3.60;;;;;;;18.17;50.97;101653.78;4965619;28;20084;-57
2022/11/29 06:52:33;;;;;;;5.93;4.13;;;;;;;18.18;51.27;101664.44;4993175;28;20042;-60
2022/11/29 06:55:11;;;;;;;5.57;4.00;;;;;;;18.20;51.02;101661.59;4993695;28;20046;-60
2022/11/29 06:57:36;;;;;;;6.45;3.90;;;;;;;18.20;51.07;101665.13;5010860;28;20036;-59
2022/11/29 07:00:10;;;;;;;6.40;4.15;;;;;;;18.21;51.05;101669.50;5015827;28;20079;-60
2022/11/29 07:03:05;;;;;;;5.15;3.83;;;;;;;18.22;50.97;101682.00;5002502;28;20029;-60
2022/11/29 07:05:32;;;;;;;4.68;3.53;;;;;;;18.25;51.04;101675.44;5013513;28;20025;-57
2022/11/29 07:08:07;;;;;;;5.28;3.83;;;;;;;18.26;51.37;101676.28;5012093;28;20138;-60
2022/11/29 07:10:36;;;;;;;5.25;3.85;;;;;;;18.15;51.05;101664.72;4993230;28;20735;-60
2022/11/29 07:13:02;;;;;;;5.38;3.75;;;;;;;18.16;51.19;101665.56;5000711;28;20033;-61
2022/11/29 07:15:27;;;;;;;8.00;3.97;;;;;;;18.30;51.07;101689.31;4997026;28;20057;-51
2022/11/29 07:17:57;;;;;;;5.03;3.88;;;;;;;18.30;51.04;101692.00;5009774;28;20029;-55
2022/11/29 07:20:31;;;;;;;5.22;3.40;;;;;;;18.07;50.91;101652.97;4998600;28;20077;-55
2022/11/29 07:23:01;;;;;;;6.18;4.00;;;;;;;18.33;51.09;101690.88;5010769;28;20045;-60
2022/11/29 07:25:42;;;;;;;5.40;3.60;;;;;;;18.34;51.02;101689.88;5013073;28;20042;-60
2022/11/29 07:28:30;;;;;;;5.10;3.90;;;;;;;18.34;50.94;101687.19;5005511;28;20085;-59
2022/11/29 07:31:04;;;;;;;5.30;3.85;;;;;;;18.36;50.81;101699.50;5012662;28;20140;-60
2022/11/29 07:33:54;;;;;;;4.53;3.85;;;;;;;18.36;51.04;101695.97;5001143;28;20029;-60
2022/11/29 07:36:46;;;;;;;5.43;3.35;;;;;;;18.39;50.73;101704.63;5015750;28;20034;-60
2022/11/29 07:39:18;;;;;;;4.22;3.42;;;;;;;18.41;50.90;101707.16;5002183;28;20034;-49
2022/11/29 07:42:10;;;;;;;5.40;3.55;;;;;;;18.39;50.85;101707.31;5011168;28;20437;-60
2022/11/29 07:45:20;;;;;;;6.22;4.28;;;;;;;18.38;50.87;101710.97;5012777;28;20026;-60
2022/11/29 07:47:45;;;;;;;5.28;3.63;;;;;;;18.42;50.83;101716.91;5018828;28;20034;-60
2022/11/29 07:50:12;;;;;;;6.47;4.07;;;;;;;18.43;50.33;101724.00;5026634;28;20786;-61
2022/11/29 07:52:37;;;;;;;7.68;3.90;;;;;;;18.36;50.54;101707.59;5022324;28;20466;-60
2022/11/29 07:55:03;;;;;;;6.25;4.63;;;;;;;18.43;50.64;101730.22;5025143;28;20032;-60
2022/11/29 07:57:29;;;;;;;5.22;3.53;;;;;;;18.43;50.54;101730.22;5003710;28;20042;-59
2022/11/29 07:59:54;;;;;;;5.22;3.67;;;;;;;18.42;50.68;101728.53;5024484;28;20040;-60
2022/11/29 08:02:29;;;;;;;6.25;3.92;;;;;;;18.36;50.54;101718.34;5021754;28;20116;-60
2022/11/29 08:04:55;;;;;;;4.53;3.55;;;;;;;18.45;49.94;101736.31;5022203;28;20032;-59
2022/11/29 08:07:20;;;;;;;6.72;4.22;;;;;;;18.37;50.66;101721.91;5024451;28;20022;-59
2022/11/29 08:09:45;;;;;;;3.90;3.13;;;;;;;18.37;50.39;101714.66;5022375;28;20034;-60
2022/11/29 08:12:11;;;;;;;7.82;4.20;;;;;;;18.48;50.61;101732.50;5025564;28;20033;-59
2022/11/29 08:14:36;;;;;;;4.57;3.47;;;;;;;18.49;50.57;101734.19;5020371;28;20126;-60
2022/11/29 08:17:01;;;;;;;4.68;3.80;;;;;;;18.50;50.31;101738.59;5025079;28;20382;-57
2022/11/29 08:19:26;;;;;;;4.90;3.72;;;;;;;18.53;50.15;101732.91;5021739;28;20109;-51
2022/11/29 08:21:52;;;;;;;7.10;3.60;;;;;;;18.54;50.16;101740.00;5018606;28;20030;-59
2022/11/29 08:24:18;;;;;;;5.40;3.55;;;;;;;18.54;50.03;101745.38;5015585;28;20113;-60
2022/11/29 08:26:43;;;;;;;5.65;3.38;;;;;;;18.54;49.90;101737.28;5016842;28;20084;-59
2022/11/29 08:29:08;;;;;;;5.47;3.60;;;;;;;18.56;50.10;101756.84;5022854;28;20085;-60
2022/11/29 08:31:34;;;;;;;5.05;3.55;;;;;;;18.57;49.97;101749.63;5023362;28;20029;-59
2022/11/29 08:33:59;;;;;;;4.57;3.40;;;;;;;18.57;50.06;101753.16;5023206;28;20093;-60
2022/11/29 08:36:24;;;;;;;4.43;3.10;;;;;;;18.51;50.20;101736.72;5024333;28;20112;-60
2022/11/29 08:38:50;;;;;;;4.47;2.75;;;;;;;18.59;49.93;101753.00;5026288;28;20034;-59
2022/11/29 08:41:16;;;;;;;4.57;3.03;;;;;;;18.60;49.91;101763.63;5022537;28;20041;-60
2022/11/29 08:43:42;;;;;;;3.95;3.10;;;;;;;18.61;49.91;101768.06;5019530;28;20983;-59
2022/11/29 08:46:08;;;;;;;6.20;3.55;;;;;;;18.62;49.84;101767.03;5026926;28;20482;-58
2022/11/29 08:48:34;;;;;;;4.90;3.50;;;;;;;18.62;49.71;101760.81;5021470;28;20021;-59
2022/11/29 08:51:00;;;;;;;6.57;4.25;;;;;;;18.66;49.73;101765.75;5020997;28;20025;-59
2022/11/29 08:53:40;;;;;;;4.65;3.20;;;;;;;18.68;49.95;101769.13;5022452;28;20040;-59
2022/11/29 08:56:10;;;;;;;8.30;3.50;;;;;;;18.67;49.56;101766.59;5025525;28;20037;-58
2022/11/29 08:58:37;;;;;;;5.97;3.10;;;;;;;18.67;49.48;101770.16;5024524;28;20034;-59
2022/11/29 09:01:03;;;;;;;4.00;3.10;;;;;;;18.62;49.93;101763.50;5024378;28;20073;-60
2022/11/29 09:06:14;;;;;;;5.15;2.83;;;;;;;18.72;50.02;101785.91;5017035;28;20057;-60
2022/11/29 09:08:42;;;;;;;5.80;3.67;;;;;;;18.73;50.09;101787.59;5019019;28;20069;-58
2022/11/29 09:11:12;;;;;;;4.03;3.20;;;;;;;18.75;50.10;101782.91;5021881;28;20239;-63
2022/11/29 09:13:44;;;;;;;4.47;3.40;;;;;;;18.76;50.06;101786.47;5019656;28;20279;-48
2022/11/29 09:16:11;;;;;;;5.55;3.28;;;;;;;18.77;50.02;101790.84;5020614;28;20037;-51
2022/11/29 09:18:38;;;;;;;5.15;3.13;;;;;;;18.76;49.91;101791.84;5017045;28;20455;-52
2022/11/29 09:21:08;;;;;;;4.05;2.92;;;;;;;18.77;50.07;101796.22;5026984;28;20044;-51
2022/11/29 09:23:34;;;;;;;4.50;3.10;;;;;;;18.79;49.66;101800.50;5021889;28;20096;-59
2022/11/29 09:26:00;;;;;;;4.25;3.10;;;;;;;18.80;49.84;101794.09;5025475;28;20093;-60
2022/11/29 09:28:26;;;;;;;3.80;2.60;;;;;;;18.79;49.86;101795.09;5026181;28;20038;-59
2022/11/29 09:30:51;;;;;;;4.57;3.85;;;;;;;18.79;49.95;101791.56;5025789;28;20060;-59
2022/11/29 09:33:16;;;;;;;4.05;3.10;;;;;;;18.80;49.79;101793.25;5025653;28;20526;-55
2022/11/29 09:35:41;;;;;;;4.90;3.13;;;;;;;18.80;49.88;101796.78;5025693;28;20052;-59
2022/11/29 09:38:11;;;;;;;3.80;2.80;;;;;;;18.72;49.72;101783.22;5024461;28;20070;-59
2022/11/29 09:40:37;;;;;;;;;;;;;;;18.81;49.84;101803.88;5024941;28;20032;-59
2022/11/29 09:43:14;;;;;;;4.05;3.17;;;;;;;18.81;49.92;101809.25;5024205;28;19920;-59
2022/11/29 09:45:41;;;;;;;4.00;2.80;;;;;;;18.80;49.51;101810.25;5021481;28;20022;-59
2022/11/29 09:48:06;;;;;;;6.57;3.08;;;;;;;18.81;49.78;101813.81;5007675;28;20048;-60
2022/11/29 09:50:53;;;;;;;5.05;3.25;;;;;;;18.80;49.80;101812.97;5024341;28;20442;-59
2022/11/29 09:53:33;;;;;;;3.88;2.80;;;;;;;18.84;49.78;101821.59;5008669;28;20386;-60
2022/11/29 09:56:16;;;;;;;4.05;2.80;;;;;;;18.84;49.21;101818.91;5021826;28;20042;-60
2022/11/29 09:58:49;;;;;;;3.08;2.47;;;;;;;18.84;49.32;101830.53;5024959;28;20050;-60
2022/11/29 10:01:22;;;;;;;3.83;2.80;;;;;;;18.83;49.26;101825.31;5025763;28;20101;-60
2022/11/29 10:03:50;;;;;;;4.28;2.60;;;;;;;18.86;49.38;101822.28;5008753;28;20025;-59
2022/11/29 10:06:22;;;;;;;3.88;2.80;;;;;;;18.86;49.30;101820.47;5008906;28;20034;-59
2022/11/29 10:09:03;;;;;;;6.55;3.25;;;;;;;18.86;49.06;101823.19;5005806;28;21183;-58
2022/11/29 10:11:39;;;;;;;4.15;2.72;;;;;;;18.86;49.16;101819.59;5014512;28;20018;-60
2022/11/29 10:14:12;;;;;;;3.28;2.47;;;;;;;18.84;49.09;101822.44;5021549;28;20033;-60
2022/11/29 10:16:45;;;;;;;3.90;2.70;;;;;;;18.84;49.45;101822.44;5004418;28;20022;-59
2022/11/29 10:19:27;;;;;;;3.65;2.55;;;;;;;18.83;49.21;101828.84;5023856;28;20029;-61
2022/11/29 10:22:02;;;;;;;5.55;2.85;;;;;;;18.84;49.42;101818.91;5006673;28;20077;-60
2022/11/29 10:24:28;;;;;;;3.25;2.50;;;;;;;18.83;49.45;101825.31;5005223;28;20029;-59
2022/11/29 10:26:54;;;;;;;4.25;2.78;;;;;;;18.83;49.07;101828.84;5005406;28;20052;-61
2022/11/29 10:29:20;;;;;;;5.05;3.15;;;;;;;18.81;49.58;101825.44;5008195;28;20110;-61
2022/11/29 10:31:48;;;;;;;3.30;2.60;;;;;;;18.73;49.40;101804.63;5007987;28;20124;-61
2022/11/29 10:34:22;;;;;;;2.67;2.15;;;;;;;18.79;49.50;101829.28;5025399;28;20059;-61
2022/11/29 10:36:54;;;;;;;3.92;2.38;;;;;;;18.83;49.17;101833.38;5024180;28;20109;-61
2022/11/29 10:39:38;;;;;;;5.07;2.80;;;;;;;18.81;49.42;101843.44;5004185;28;20089;-60
2022/11/29 10:42:47;;;;;;;3.60;2.42;;;;;;;18.79;49.29;101838.22;5006788;28;20022;-61
2022/11/29 10:44:50;;;;;;;3.28;2.22;;;;;;;18.79;49.46;101848.16;5008149;28;20022;-61
2022/11/29 10:47:15;;;;;;;5.78;2.60;;;;;;;18.68;49.63;101831.09;5018745;28;20037;-61
2022/11/29 10:49:41;;;;;;;3.60;2.60;;;;;;;18.77;49.48;101839.34;4998119;28;20037;-62
2022/11/29 10:52:17;;;;;;;3.75;2.83;;;;;;;18.51;49.69;101799.53;5010291;28;20064;-62
2022/11/29 10:54:42;;;;;;;3.25;2.35;;;;;;;18.75;49.64;101847.56;4999454;28;20116;-61
2022/11/29 10:57:20;;;;;;;3.42;2.70;;;;;;;18.76;49.43;101837.66;5017231;28;20036;-60
2022/11/29 11:00:06;;;;;;;3.37;2.43;;;;;;;18.76;49.71;101838.50;5020346;28;20040;-60
2022/11/29 11:02:31;;;;;;;7.15;2.90;;;;;;;18.78;49.53;101839.22;4999066;28;20026;-61
2022/11/29 11:04:57;;;;;;;5.10;2.72;;;;;;;18.80;49.23;101839.91;5005948;28;20038;-62
2022/11/29 11:07:34;;;;;;;5.10;2.45;;;;;;;18.82;49.52;101839.75;5004551;28;20030;-60
2022/11/29 11:10:01;;;;;;;4.45;2.78;;;;;;;18.83;49.38;101839.63;5017929;28;20450;-61
2022/11/29 11:12:29;;;;;;;3.85;2.78;;;;;;;18.83;49.34;101839.63;5025013;28;20033;-61
2022/11/29 11:15:15;;;;;;;3.72;2.10;;;;;;;18.82;49.71;101840.63;5022161;28;20061;-62
2022/11/29 11:17:57;;;;;;;4.65;2.67;;;;;;;18.84;49.36;101844.00;5004346;28;20097;-62
2022/11/29 11:20:23;;;;;;;4.55;2.55;;;;;;;18.85;49.39;101843.00;5020760;28;20399;-62
2022/11/29 11:23:00;;;;;;;5.45;2.50;;;;;;;18.85;49.35;101842.16;5024857;28;20041;-63
2022/11/29 11:25:33;;;;;;;4.50;2.33;;;;;;;18.84;49.71;101846.69;5006114;28;20077;-62
2022/11/29 11:28:12;;;;;;;5.15;2.63;;;;;;;18.81;49.38;101844.28;5024941;28;20067;-62
2022/11/29 11:30:37;;;;;;;3.58;2.55;;;;;;;18.78;49.56;101835.69;5005309;28;20026;-62
2022/11/29 11:33:19;;;;;;;4.40;2.58;;;;;;;18.79;49.58;101831.97;5006769;28;20088;-62
2022/11/29 11:36:00;;;;;;;3.55;2.30;;;;;;;18.78;49.56;101824.91;5024639;28;20018;-62
2022/11/29 11:38:25;;;;;;;3.30;2.45;;;;;;;18.89;49.62;101844.41;5024639;28;20037;-62
2022/11/29 11:41:02;;;;;;;3.80;2.50;;;;;;;18.79;49.56;101824.75;5023645;28;20120;-62
2022/11/29 11:43:27;;;;;;;4.60;2.63;;;;;;;18.93;49.37;101847.69;5005673;28;20026;-61
2022/11/29 11:45:53;;;;;;;3.88;2.67;;;;;;;18.88;49.75;101842.72;5025610;28;20057;-62
2022/11/29 11:48:19;;;;;;;5.15;2.90;;;;;;;18.91;49.64;101839.75;5006741;28;20091;-62
2022/11/29 11:50:49;;;;;;;5.63;3.35;;;;;;;18.97;49.77;101841.00;5006918;28;20029;-62
2022/11/29 11:53:22;;;;;;;3.85;2.72;;;;;;;18.98;49.47;101846.22;5014115;28;20485;-62
2022/11/29 11:56:00;;;;;;;3.65;2.60;;;;;;;19.01;49.52;101847.78;5020699;28;20022;-60
2022/11/29 11:58:46;;;;;;;5.90;3.05;;;;;;;19.02;49.47;101848.63;5023420;28;20088;-61
2022/11/29 12:01:11;;;;;;;4.45;2.75;;;;;;;19.03;49.75;101844.94;5006583;28;20293;-60
2022/11/29 12:03:55;;;;;;;4.95;2.83;;;;;;;18.95;49.48;101846.53;5028085;28;20083;-61
2022/11/29 12:06:36;;;;;;;6.32;2.78;;;;;;;19.02;49.61;101848.63;5022836;28;20542;-61